Time;durP1;ratioP1;P1;durP2;ratioP2;P2;SDS_P1;SDS_P2;PMS_P1;PMS_P2;Temp;Humidity;BMP_temperature;BMP_pressure;BME280_temperature;BME280_humidity;BME280_pressure;Samples;Min_cycle;Max_cycle;Signal;HPM_P1;HPM_P2
2023/04/05 00:00:21;;;;;;;27.55;25.17;;;-0.70;99.90;;;;;;5057917;28;20066;-74
2023/04/05 00:02:48;;;;;;;28.67;26.33;;;-0.80;99.90;;;;;;5041129;28;20033;-75
2023/04/05 00:05:28;;;;;;;27.45;25.23;;;-0.90;99.90;;;;;;5061033;28;20048;-74
2023/04/05 00:07:56;;;;;;;27.65;25.40;;;-0.80;99.90;;;;;;5060813;28;20258;-75
2023/04/05 00:10:23;;;;;;;28.48;25.90;;;-1.00;99.90;;;;;;5067300;28;20106;-74
2023/04/05 00:12:50;;;;;;;27.90;25.45;;;-1.10;99.90;;;;;;5065530;28;20047;-74
2023/04/05 00:15:16;;;;;;;28.50;26.20;;;-1.20;99.90;;;;;;5058104;28;20616;-74
2023/04/05 00:17:44;;;;;;;29.90;27.13;;;-1.30;99.90;;;;;;5057787;28;20036;-74
2023/04/05 00:20:11;;;;;;;28.85;26.13;;;-1.40;99.90;;;;;;5056848;28;20091;-74
2023/04/05 00:22:40;;;;;;;29.80;26.98;;;-1.40;99.90;;;;;;5059229;28;20043;-74
2023/04/05 00:25:07;;;;;;;29.02;26.40;;;-1.40;99.90;;;;;;5054259;28;20056;-74
2023/04/05 00:27:34;;;;;;;27.98;25.58;;;-1.40;99.90;;;;;;5062278;28;20457;-74
2023/04/05 00:30:01;;;;;;;27.42;24.92;;;-1.40;99.90;;;;;;5057034;28;20050;-75
2023/04/05 00:32:28;;;;;;;26.88;24.40;;;-1.30;99.90;;;;;;5058971;28;20053;-74
2023/04/05 00:34:55;;;;;;;26.75;24.02;;;-1.30;99.90;;;;;;5038589;28;20513;-74
2023/04/05 00:37:21;;;;;;;25.90;23.63;;;-1.30;99.90;;;;;;5040850;28;20426;-74
2023/04/05 00:39:48;;;;;;;25.95;23.67;;;-1.40;99.90;;;;;;5056025;28;20087;-74
2023/04/05 00:42:15;;;;;;;26.25;23.70;;;-1.40;99.90;;;;;;5042045;28;20044;-74
2023/04/05 00:44:41;;;;;;;26.00;23.73;;;-1.50;99.90;;;;;;5057815;28;20040;-75
2023/04/05 00:47:08;;;;;;;26.20;23.85;;;-1.30;99.90;;;;;;5052937;28;20036;-74
2023/04/05 00:49:36;;;;;;;28.30;23.42;;;-1.30;99.90;;;;;;5052275;28;20429;-74
2023/04/05 00:52:03;;;;;;;26.63;23.90;;;-1.50;99.90;;;;;;5043946;28;20068;-75
2023/04/05 00:54:30;;;;;;;26.05;23.52;;;-1.60;99.90;;;;;;5058007;28;20040;-74
2023/04/05 00:57:01;;;;;;;25.70;23.42;;;-1.70;99.90;;;;;;5055793;28;20303;-75
2023/04/05 00:59:27;;;;;;;25.92;23.65;;;-1.80;99.90;;;;;;5055129;28;20153;-74
2023/04/05 01:02:20;;;;;;;25.45;23.13;;;-1.70;99.90;;;;;;5057365;28;20108;-75
2023/04/05 01:04:52;;;;;;;26.45;23.63;;;-1.70;99.90;;;;;;5033226;28;20066;-75
2023/04/05 01:07:30;;;;;;;25.75;23.40;;;-1.70;99.90;;;;;;5055128;28;20426;-75
2023/04/05 01:09:59;;;;;;;25.10;22.98;;;-1.70;99.90;;;;;;5053893;28;20119;-75
2023/04/05 01:12:32;;;;;;;24.60;22.30;;;-1.80;99.90;;;;;;5069084;28;20028;-74
2023/04/05 01:15:00;;;;;;;25.13;22.73;;;-1.90;99.90;;;;;;5054877;28;20136;-75
2023/04/05 01:17:28;;;;;;;25.08;22.77;;;-2.00;99.90;;;;;;5063596;28;20036;-75
2023/04/05 01:20:02;;;;;;;24.17;22.00;;;-2.00;99.90;;;;;;5047947;28;20052;-74
2023/04/05 01:22:44;;;;;;;25.15;22.83;;;-1.90;99.90;;;;;;5057265;28;20060;-74
2023/04/05 01:25:43;;;;;;;24.08;22.08;;;-1.90;99.90;;;;;;5052086;28;20095;-75
2023/04/05 01:28:29;;;;;;;24.98;22.75;;;-2.00;99.90;;;;;;5037262;28;20057;-74
2023/04/05 01:31:13;;;;;;;24.38;22.02;;;-2.00;99.90;;;;;;5047035;28;20036;-75
2023/04/05 01:33:54;;;;;;;24.23;22.20;;;-2.00;99.90;;;;;;5061348;28;20681;-74
2023/04/05 01:36:35;;;;;;;25.45;23.08;;;-2.10;99.90;;;;;;5054004;28;20139;-74
2023/04/05 01:39:04;;;;;;;25.90;22.50;;;-2.10;99.90;;;;;;5057730;28;20227;-74
2023/04/05 01:41:32;;;;;;;25.27;22.95;;;-2.10;99.90;;;;;;5049417;28;20036;-74
2023/04/05 01:43:59;;;;;;;25.38;22.83;;;-2.10;99.90;;;;;;5045232;28;20662;-74
2023/04/05 01:46:27;;;;;;;25.17;22.95;;;-2.10;99.90;;;;;;5040270;28;20067;-74
2023/04/05 01:48:54;;;;;;;23.92;22.08;;;-2.20;99.90;;;;;;5051609;28;20055;-75
2023/04/05 01:51:20;;;;;;;25.75;23.10;;;-1.90;99.90;;;;;;5044094;28;20780;-74
2023/04/05 01:53:47;;;;;;;24.38;22.08;;;-2.00;99.90;;;;;;5039737;28;20529;-74
2023/04/05 01:56:14;;;;;;;25.10;22.73;;;-2.00;99.90;;;;;;5054831;28;20048;-74
2023/04/05 01:58:40;;;;;;;24.55;22.27;;;-2.00;99.90;;;;;;5035097;28;20045;-74
2023/04/05 02:01:07;;;;;;;23.60;21.60;;;-2.10;99.90;;;;;;5051877;28;20336;-74
2023/04/05 02:03:34;;;;;;;25.23;22.63;;;-2.00;99.90;;;;;;5057092;28;20052;-74
2023/04/05 02:06:01;;;;;;;24.35;21.92;;;-1.90;99.90;;;;;;5056803;28;20109;-75
2023/04/05 02:08:27;;;;;;;23.15;21.05;;;-1.90;99.90;;;;;;5055437;28;20036;-74
2023/04/05 02:10:54;;;;;;;23.67;21.55;;;-1.90;99.90;;;;;;5058200;28;20677;-74
2023/04/05 02:13:21;;;;;;;24.10;21.90;;;-1.90;99.90;;;;;;5038403;28;20044;-74
2023/04/05 02:15:51;;;;;;;23.30;21.35;;;-2.00;99.90;;;;;;5058176;28;20071;-75
2023/04/05 02:18:21;;;;;;;23.33;21.25;;;-2.20;99.90;;;;;;5041979;28;20093;-74
2023/04/05 02:20:51;;;;;;;24.85;22.58;;;-2.20;99.90;;;;;;5038808;28;20124;-74
2023/04/05 02:23:18;;;;;;;24.55;22.15;;;-2.10;99.90;;;;;;5061041;28;20048;-75
2023/04/05 02:25:45;;;;;;;24.10;21.88;;;-2.10;99.90;;;;;;5045113;28;20096;-74
2023/04/05 02:28:12;;;;;;;25.35;22.85;;;-2.10;99.90;;;;;;5059440;28;20040;-74
2023/04/05 02:30:39;;;;;;;25.20;22.77;;;-2.20;99.90;;;;;;5061021;28;20097;-74
2023/04/05 02:33:09;;;;;;;25.48;22.88;;;-2.30;99.90;;;;;;5054042;28;20051;-74
2023/04/05 02:35:36;;;;;;;24.63;22.25;;;-2.20;99.90;;;;;;5060361;28;20089;-75
2023/04/05 02:38:03;;;;;;;23.23;21.05;;;-2.20;99.90;;;;;;5060504;28;20125;-75
2023/04/05 02:40:33;;;;;;;24.30;22.02;;;-2.30;99.90;;;;;;5051540;28;21186;-74
2023/04/05 02:43:00;;;;;;;23.77;21.58;;;-2.30;99.90;;;;;;5040140;28;20053;-75
2023/04/05 02:45:27;;;;;;;23.38;21.23;;;-2.30;99.90;;;;;;5061286;28;20127;-74
2023/04/05 02:47:56;;;;;;;23.25;21.02;;;-2.40;99.90;;;;;;5056489;28;20128;-75
2023/04/05 02:50:24;;;;;;;22.95;20.75;;;-2.30;99.90;;;;;;5053575;28;20087;-77
2023/04/05 02:52:51;;;;;;;23.67;21.15;;;-2.10;99.90;;;;;;5055289;28;20060;-74
2023/04/05 02:55:19;;;;;;;23.25;20.95;;;-2.20;99.90;;;;;;5052168;28;20064;-75
2023/04/05 02:57:46;;;;;;;22.88;20.75;;;-2.10;99.90;;;;;;5036985;28;20045;-75
2023/04/05 03:00:36;;;;;;;22.42;20.33;;;-2.20;99.90;;;;;;5048573;28;20052;-75
2023/04/05 03:03:04;;;;;;;22.95;20.73;;;-2.30;99.90;;;;;;5060290;28;20059;-75
2023/04/05 03:05:33;;;;;;;23.50;21.10;;;-2.20;99.90;;;;;;5053057;28;20099;-74
2023/04/05 03:08:01;;;;;;;22.40;20.23;;;-2.00;99.90;;;;;;5057454;28;20457;-74
2023/04/05 03:10:33;;;;;;;22.45;20.45;;;-2.00;99.90;;;;;;5051279;28;20060;-74
2023/04/05 03:13:05;;;;;;;22.50;20.13;;;-2.20;99.90;;;;;;5048694;28;20126;-73
2023/04/05 03:15:32;;;;;;;22.02;20.02;;;-2.40;99.90;;;;;;5036941;28;20080;-74
2023/04/05 03:18:04;;;;;;;23.17;20.95;;;-2.50;99.90;;;;;;5043319;28;20506;-73
2023/04/05 03:20:34;;;;;;;22.90;20.80;;;-2.40;99.90;;;;;;5058029;28;20041;-74
2023/04/05 03:23:02;;;;;;;22.92;20.67;;;-2.50;99.90;;;;;;5026279;28;20071;-74
2023/04/05 03:25:34;;;;;;;23.23;21.13;;;-2.20;99.90;;;;;;5058577;28;20064;-75
2023/04/05 03:28:07;;;;;;;23.90;21.48;;;-2.40;99.90;;;;;;5049768;28;20041;-75
2023/04/05 03:30:35;;;;;;;22.80;20.63;;;-2.50;99.90;;;;;;5060643;28;20505;-74
2023/04/05 03:33:14;;;;;;;23.15;20.73;;;-2.60;99.90;;;;;;5034004;28;20272;-75
2023/04/05 03:35:44;;;;;;;24.67;22.17;;;-2.60;99.90;;;;;;5059126;28;20064;-75
2023/04/05 03:38:12;;;;;;;23.40;21.52;;;-2.60;99.90;;;;;;5048189;28;20052;-75
2023/04/05 03:40:47;;;;;;;24.67;22.25;;;-2.60;99.90;;;;;;5053127;28;20647;-75
2023/04/05 03:43:14;;;;;;;23.83;21.50;;;-2.80;99.90;;;;;;5049397;28;20044;-74
2023/04/05 03:45:41;;;;;;;25.25;22.75;;;-2.80;99.90;;;;;;5057859;28;20557;-75
2023/04/05 03:48:08;;;;;;;25.02;22.52;;;-2.90;99.90;;;;;;5055445;28;20045;-75
2023/04/05 03:50:35;;;;;;;24.17;21.63;;;-2.60;99.90;;;;;;5059773;28;20048;-75
2023/04/05 03:53:02;;;;;;;22.98;20.63;;;-2.40;99.90;;;;;;5063325;28;20055;-74
2023/04/05 03:55:28;;;;;;;23.33;21.23;;;-2.30;99.90;;;;;;5033613;28;20811;-76
2023/04/05 03:57:59;;;;;;;23.40;21.10;;;-2.50;99.90;;;;;;5054890;28;20091;-77
2023/04/05 04:00:31;;;;;;;25.23;22.35;;;-2.50;99.90;;;;;;5052377;28;20532;-76
2023/04/05 04:03:10;;;;;;;24.25;21.23;;;-2.30;99.90;;;;;;5042123;28;20090;-77
2023/04/05 04:05:41;;;;;;;23.67;21.30;;;-2.30;99.90;;;;;;5058928;28;20045;-77
2023/04/05 04:08:09;;;;;;;24.15;21.63;;;-2.30;99.90;;;;;;5038477;28;20068;-78
2023/04/05 04:10:36;;;;;;;24.48;21.85;;;-2.60;99.90;;;;;;5061625;28;20165;-75
2023/04/05 04:13:10;;;;;;;25.17;22.65;;;-2.50;99.90;;;;;;5033963;28;20051;-75
2023/04/05 04:15:37;;;;;;;24.83;22.20;;;-2.50;99.90;;;;;;5036346;28;20044;-75
2023/04/05 04:18:32;;;;;;;23.35;21.15;;;-2.70;99.90;;;;;;5049865;28;20517;-75
2023/04/05 04:21:18;;;;;;;23.75;21.65;;;-2.50;99.90;;;;;;5039328;28;20055;-74
2023/04/05 04:24:15;;;;;;;24.42;22.00;;;-2.40;99.90;;;;;;5053784;28;20052;-75
2023/04/05 04:26:48;;;;;;;24.85;22.38;;;-2.40;99.90;;;;;;5056249;28;20039;-75
2023/04/05 04:29:45;;;;;;;24.50;22.23;;;-2.40;99.90;;;;;;5041163;28;20760;-74
2023/04/05 04:32:57;;;;;;;25.40;23.08;;;-2.60;99.90;;;;;;5062539;28;20071;-74
2023/04/05 04:35:45;;;;;;;26.17;23.38;;;-2.80;99.90;;;;;;5048161;28;20041;-76
2023/04/05 04:38:48;;;;;;;25.08;22.75;;;-2.90;99.90;;;;;;5045587;28;20055;-77
2023/04/05 04:41:46;;;;;;;27.08;24.35;;;-2.90;99.90;;;;;;5062440;28;20067;-76
2023/04/05 04:44:31;;;;;;;24.80;22.35;;;-3.10;99.90;;;;;;5054642;28;20524;-76
2023/04/05 04:47:20;;;;;;;25.40;22.88;;;-3.20;99.90;;;;;;5063779;28;20044;-77
2023/04/05 04:50:14;;;;;;;26.45;24.05;;;-3.20;99.90;;;;;;5057926;28;20048;-77
2023/04/05 04:52:41;;;;;;;27.45;24.58;;;-3.30;99.90;;;;;;5061614;28;20040;-76
2023/04/05 04:55:13;;;;;;;25.10;22.88;;;-3.30;99.90;;;;;;5062062;28;20098;-76
2023/04/05 04:57:41;;;;;;;26.08;23.67;;;-3.40;99.90;;;;;;5061884;28;20523;-77
2023/04/05 05:00:15;;;;;;;25.65;23.02;;;-3.40;99.90;;;;;;5062341;28;20044;-77
2023/04/05 05:02:43;;;;;;;25.52;23.02;;;-3.40;99.90;;;;;;5050102;28;20136;-76
2023/04/05 05:05:13;;;;;;;26.92;24.23;;;-3.40;99.90;;;;;;5047563;28;20044;-76
2023/04/05 05:07:41;;;;;;;26.40;23.90;;;-3.20;99.90;;;;;;5040031;28;20037;-77
2023/04/05 05:10:09;;;;;;;29.33;25.40;;;-3.10;99.90;;;;;;5056026;28;20047;-77
2023/04/05 05:12:37;;;;;;;27.55;25.02;;;-3.00;99.90;;;;;;5057987;28;20068;-77
2023/04/05 05:15:04;;;;;;;28.83;25.95;;;-2.90;99.90;;;;;;5049574;28;20052;-76
2023/04/05 05:17:31;;;;;;;28.75;25.85;;;-2.80;99.90;;;;;;5055680;28;20048;-77
2023/04/05 05:19:59;;;;;;;27.63;24.90;;;-2.80;99.90;;;;;;5056743;28;20040;-76
2023/04/05 05:22:26;;;;;;;27.20;24.30;;;-2.60;99.90;;;;;;5053445;28;20060;-76
2023/04/05 05:24:53;;;;;;;26.45;23.95;;;-2.40;99.90;;;;;;5046720;28;20044;-76
2023/04/05 05:27:21;;;;;;;26.50;24.02;;;-2.40;99.90;;;;;;5052485;28;20048;-77
2023/04/05 05:29:50;;;;;;;28.27;24.38;;;-2.30;99.90;;;;;;5060637;28;20029;-76
2023/04/05 05:32:22;;;;;;;26.52;24.02;;;-2.20;99.90;;;;;;5057011;28;20036;-76
2023/04/05 05:34:48;;;;;;;26.92;24.08;;;-2.20;99.90;;;;;;5061618;28;20051;-77
2023/04/05 05:37:18;;;;;;;27.52;23.77;;;-2.10;99.90;;;;;;5057032;28;20425;-76
2023/04/05 05:39:44;;;;;;;26.52;24.13;;;-2.10;99.90;;;;;;5062607;28;20534;-76
2023/04/05 05:42:11;;;;;;;25.67;23.08;;;-2.00;99.90;;;;;;5056453;28;20051;-76
2023/04/05 05:44:38;;;;;;;24.60;22.70;;;-1.90;99.90;;;;;;5043568;28;20040;-76
2023/04/05 05:47:04;;;;;;;27.33;24.38;;;-1.90;99.90;;;;;;5060760;28;20071;-75
2023/04/05 05:49:31;;;;;;;29.17;25.13;;;-1.90;99.90;;;;;;5065460;28;20057;-74
2023/04/05 05:51:58;;;;;;;28.77;26.15;;;-1.80;99.90;;;;;;5062747;28;20037;-74
2023/04/05 05:54:25;;;;;;;28.20;25.80;;;-1.70;99.90;;;;;;5064209;28;20045;-74
2023/04/05 05:56:53;;;;;;;29.27;26.25;;;-1.70;99.90;;;;;;5052648;28;20119;-74
2023/04/05 05:59:20;;;;;;;29.85;27.08;;;-1.70;99.90;;;;;;5071104;28;20144;-75
2023/04/05 06:01:47;;;;;;;29.20;26.80;;;-1.80;99.90;;;;;;5070339;28;20538;-74
2023/04/05 06:04:15;;;;;;;31.40;28.27;;;-1.80;99.90;;;;;;5066769;28;20051;-75
2023/04/05 06:06:42;;;;;;;30.50;27.58;;;-1.70;99.90;;;;;;5065333;28;20047;-74
2023/04/05 06:09:09;;;;;;;32.25;28.95;;;-1.50;99.90;;;;;;5071174;28;20036;-75
2023/04/05 06:11:36;;;;;;;36.95;33.25;;;-1.50;99.90;;;;;;5059115;28;20041;-74
2023/04/05 06:14:15;;;;;;;44.45;39.63;;;-1.60;99.90;;;;;;5056442;28;20052;-75
2023/04/05 06:16:41;;;;;;;54.25;43.92;;;-1.40;99.90;;;;;;5063048;28;20039;-74
2023/04/05 06:19:08;;;;;;;59.38;45.50;;;-1.20;99.90;;;;;;5068792;28;20048;-75
2023/04/05 06:21:35;;;;;;;45.95;40.15;;;-1.20;99.90;;;;;;5064496;28;20043;-78
2023/04/05 06:24:02;;;;;;;45.70;41.10;;;-1.30;99.90;;;;;;5044645;28;20117;-76
2023/04/05 06:26:30;;;;;;;38.00;34.15;;;-1.20;99.90;;;;;;5061161;28;20047;-75
2023/04/05 06:28:57;;;;;;;41.38;37.25;;;-1.20;99.90;;;;;;5063701;28;20136;-75
2023/04/05 06:31:30;;;;;;;36.13;32.67;;;-1.10;99.90;;;;;;5059103;28;20643;-75
2023/04/05 06:33:57;;;;;;;34.53;30.92;;;-0.90;99.90;;;;;;5065912;28;20044;-76
2023/04/05 06:36:25;;;;;;;43.35;38.80;;;-0.80;99.90;;;;;;5064857;28;20047;-74
2023/04/05 06:38:53;;;;;;;44.25;38.58;;;-0.50;99.90;;;;;;5048778;28;20040;-75
2023/04/05 06:41:20;;;;;;;39.10;35.15;;;-0.30;99.90;;;;;;5070263;28;20721;-76
2023/04/05 06:43:46;;;;;;;43.33;37.90;;;-0.20;99.90;;;;;;5065262;28;20171;-75
2023/04/05 06:46:13;;;;;;;45.40;40.92;;;0.10;99.90;;;;;;5050877;28;20048;-76
2023/04/05 06:48:42;;;;;;;34.25;31.45;;;0.30;99.90;;;;;;5063563;28;20040;-74
2023/04/05 06:51:09;;;;;;;35.55;32.08;;;0.40;99.90;;;;;;5064966;28;20086;-76
2023/04/05 06:53:36;;;;;;;33.67;31.00;;;0.70;99.90;;;;;;5056680;28;20047;-75
2023/04/05 06:56:03;;;;;;;34.00;31.33;;;1.00;99.90;;;;;;5070727;28;20704;-74
2023/04/05 06:58:30;;;;;;;32.00;29.42;;;1.20;99.90;;;;;;5062607;28;20048;-75
2023/04/05 07:00:59;;;;;;;32.63;29.90;;;1.40;99.90;;;;;;5058633;28;20673;-74
2023/04/05 07:03:25;;;;;;;32.33;29.73;;;1.60;99.90;;;;;;5060421;28;20131;-76
2023/04/05 07:05:54;;;;;;;34.28;30.95;;;1.70;99.90;;;;;;5045998;28;20076;-76
2023/04/05 07:08:20;;;;;;;33.33;30.58;;;1.80;99.90;;;;;;5054578;28;20110;-76
2023/04/05 07:10:48;;;;;;;33.63;30.63;;;2.00;99.90;;;;;;5064847;28;20075;-75
2023/04/05 07:13:18;;;;;;;33.55;30.60;;;2.20;99.90;;;;;;5065505;28;20052;-73
2023/04/05 07:15:45;;;;;;;32.80;30.25;;;2.60;99.90;;;;;;5055933;28;20037;-77
2023/04/05 07:18:16;;;;;;;33.03;30.42;;;2.90;99.90;;;;;;5054197;28;20040;-76
2023/04/05 07:20:48;;;;;;;34.10;31.38;;;3.20;99.90;;;;;;5059732;28;20401;-76
2023/04/05 07:23:15;;;;;;;34.72;31.67;;;3.40;99.90;;;;;;5060034;28;20078;-76
2023/04/05 07:25:42;;;;;;;38.15;35.05;;;3.60;99.90;;;;;;5070175;28;20044;-75
2023/04/05 07:28:08;;;;;;;38.15;35.53;;;3.80;99.90;;;;;;5064788;28;20658;-76
2023/04/05 07:30:35;;;;;;;33.97;31.38;;;4.10;99.90;;;;;;5061464;28;20050;-76
2023/04/05 07:33:02;;;;;;;36.10;33.22;;;4.30;99.90;;;;;;5056402;28;20486;-74
2023/04/05 07:35:29;;;;;;;34.88;32.22;;;4.30;99.90;;;;;;5053830;28;20051;-76
2023/04/05 07:37:56;;;;;;;39.17;36.30;;;4.40;99.90;;;;;;5062077;28;20159;-74
2023/04/05 07:40:23;;;;;;;38.65;35.97;;;4.50;99.90;;;;;;5049270;28;20113;-76
2023/04/05 07:42:49;;;;;;;40.22;37.63;;;4.70;99.90;;;;;;5059796;28;20047;-75
2023/04/05 07:45:16;;;;;;;40.72;37.83;;;4.80;99.90;;;;;;5061808;28;20037;-75
2023/04/05 07:47:43;;;;;;;41.20;37.97;;;4.70;99.90;;;;;;5061211;28;20089;-74
2023/04/05 07:50:13;;;;;;;41.17;38.25;;;5.00;99.90;;;;;;5063932;28;20040;-79
2023/04/05 07:52:41;;;;;;;41.53;38.92;;;5.20;99.90;;;;;;5040726;28;20062;-76
2023/04/05 07:55:08;;;;;;;42.08;39.17;;;5.00;99.90;;;;;;5061991;28;20035;-77
2023/04/05 07:57:36;;;;;;;41.17;38.47;;;4.90;99.90;;;;;;5043300;28;20727;-75
2023/04/05 08:00:09;;;;;;;44.47;41.20;;;5.00;99.90;;;;;;5045782;28;20094;-78
2023/04/05 08:02:39;;;;;;;42.42;39.22;;;5.10;99.90;;;;;;5070752;28;20106;-74
2023/04/05 08:05:06;;;;;;;44.45;40.70;;;5.50;99.90;;;;;;5063506;28;20048;-75
2023/04/05 08:07:33;;;;;;;42.20;39.20;;;6.00;99.90;;;;;;5064542;28;20718;-73
2023/04/05 08:10:00;;;;;;;44.13;40.80;;;6.30;99.90;;;;;;5079786;28;20122;-77
2023/04/05 08:12:26;;;;;;;43.08;40.25;;;6.40;99.90;;;;;;5067435;28;20048;-76
2023/04/05 08:14:53;;;;;;;44.35;41.20;;;6.60;99.90;;;;;;5069510;28;20102;-75
2023/04/05 08:17:20;;;;;;;46.28;43.28;;;6.50;99.90;;;;;;5069380;28;20044;-76
2023/04/05 08:19:48;;;;;;;47.30;44.15;;;6.40;99.90;;;;;;5063855;28;20626;-76
2023/04/05 08:22:16;;;;;;;44.80;41.95;;;6.60;99.90;;;;;;5073950;28;20082;-79
2023/04/05 08:24:43;;;;;;;44.80;41.58;;;6.90;99.90;;;;;;5070188;28;20724;-76
2023/04/05 08:27:10;;;;;;;44.90;41.95;;;6.60;99.90;;;;;;5060924;28;20052;-76
2023/04/05 08:29:37;;;;;;;44.20;41.45;;;6.40;99.90;;;;;;5066237;28;20650;-74
2023/04/05 08:32:04;;;;;;;45.58;42.75;;;6.50;99.90;;;;;;5061677;28;20740;-75
2023/04/05 08:34:30;;;;;;;45.17;41.97;;;6.10;99.90;;;;;;5067702;28;20040;-74
2023/04/05 08:36:58;;;;;;;43.60;40.63;;;6.40;99.90;;;;;;5065064;28;20040;-76
2023/04/05 08:39:25;;;;;;;43.88;40.88;;;6.40;99.90;;;;;;5069363;28;20635;-75
2023/04/05 08:42:04;;;;;;;45.22;42.17;;;6.50;99.90;;;;;;5064965;28;20424;-76
2023/04/05 08:44:31;;;;;;;45.28;42.58;;;6.90;99.90;;;;;;5040051;28;20048;-76
2023/04/05 08:46:59;;;;;;;44.33;41.33;;;6.80;99.90;;;;;;5066046;28;20756;-77
2023/04/05 08:49:26;;;;;;;44.28;41.45;;;6.60;99.90;;;;;;5070769;28;20079;-74
2023/04/05 08:51:54;;;;;;;44.67;41.85;;;6.80;99.90;;;;;;5062732;28;20063;-74
2023/04/05 08:54:21;;;;;;;40.33;37.70;;;7.30;99.90;;;;;;5064092;28;20044;-75
2023/04/05 08:56:48;;;;;;;40.80;37.90;;;7.40;99.90;;;;;;5061740;28;20165;-74
2023/04/05 08:59:17;;;;;;;40.15;37.28;;;7.80;99.90;;;;;;5067020;28;20060;-75
2023/04/05 09:01:47;;;;;;;39.53;36.90;;;7.40;99.90;;;;;;5068982;28;20087;-75
2023/04/05 09:04:20;;;;;;;40.05;37.17;;;7.30;99.90;;;;;;5064616;28;20549;-72
2023/04/05 09:06:50;;;;;;;50.03;47.03;;;7.40;99.90;;;;;;5062109;28;20073;-73
2023/04/05 09:09:19;;;;;;;48.60;45.70;;;7.20;99.90;;;;;;5056939;28;20037;-74
2023/04/05 09:11:46;;;;;;;48.35;45.35;;;7.00;99.90;;;;;;5063477;28;20887;-73
2023/04/05 09:14:13;;;;;;;47.08;44.17;;;7.00;99.90;;;;;;5070449;28;20043;-75
2023/04/05 09:16:40;;;;;;;47.53;44.53;;;7.20;99.90;;;;;;5069446;28;20039;-74
2023/04/05 09:19:09;;;;;;;49.83;46.70;;;7.40;99.90;;;;;;5064305;28;20048;-74
2023/04/05 09:22:09;;;;;;;51.05;47.95;;;7.30;99.90;;;;;;5066644;28;20037;-73
2023/04/05 09:24:41;;;;;;;48.88;45.88;;;7.00;99.90;;;;;;5027899;28;20051;-74
2023/04/05 09:27:15;;;;;;;50.35;47.20;;;6.80;99.90;;;;;;5064693;28;20619;-74
2023/04/05 09:29:46;;;;;;;51.83;48.63;;;7.00;99.90;;;;;;5048879;28;20080;-73
2023/04/05 09:32:14;;;;;;;47.80;44.85;;;7.20;99.90;;;;;;5061718;28;20466;-75
2023/04/05 09:34:42;;;;;;;49.83;46.50;;;7.70;99.90;;;;;;5066430;22;20037;-74
2023/04/05 09:37:19;;;;;;;51.28;48.08;;;7.90;99.90;;;;;;5047027;28;20164;-72
2023/04/05 09:39:51;;;;;;;49.38;46.28;;;8.20;99.90;;;;;;5053614;28;20131;-72
2023/04/05 09:42:21;;;;;;;51.58;48.25;;;7.50;99.90;;;;;;5057053;28;20101;-72
2023/04/05 09:44:53;;;;;;;51.70;48.25;;;7.20;99.90;;;;;;5051330;28;20063;-74
2023/04/05 09:47:21;;;;;;;50.88;47.60;;;7.30;99.90;;;;;;5052725;28;20052;-72
2023/04/05 09:49:53;;;;;;;51.42;48.25;;;7.60;99.90;;;;;;5056678;28;20040;-74
2023/04/05 09:52:24;;;;;;;50.80;47.70;;;7.60;99.90;;;;;;5061080;28;20095;-74
2023/04/05 09:54:57;;;;;;;53.78;50.22;;;7.50;99.90;;;;;;5065698;28;20059;-74
2023/04/05 09:57:28;;;;;;;52.78;49.47;;;7.60;99.90;;;;;;5063940;28;20655;-74
2023/04/05 09:59:55;;;;;;;51.30;48.25;;;8.00;99.90;;;;;;5049675;28;20549;-75
2023/04/05 10:02:22;;;;;;;50.30;46.95;;;8.50;99.90;;;;;;5058285;28;20037;-72
2023/04/05 10:04:49;;;;;;;50.05;46.90;;;8.60;99.90;;;;;;5046601;28;20102;-72
2023/04/05 10:07:18;;;;;;;51.80;48.03;;;8.60;99.90;;;;;;5061184;28;20093;-71
2023/04/05 10:09:47;;;;;;;52.38;48.90;;;8.30;99.90;;;;;;5058383;28;20510;-72
2023/04/05 10:12:27;;;;;;;49.33;46.13;;;8.40;99.90;;;;;;5043342;28;20049;-74
2023/04/05 10:14:55;;;;;;;53.42;49.83;;;8.70;99.90;;;;;;5050730;28;20705;-71
2023/04/05 10:17:41;;;;;;;52.95;49.35;;;8.70;99.90;;;;;;5051939;28;20041;-72
2023/04/05 10:20:22;;;;;;;52.88;49.63;;;8.80;99.90;;;;;;5059045;28;20074;-71
2023/04/05 10:23:25;;;;;;;52.17;48.78;;;8.30;99.90;;;;;;5058464;28;20040;-72
2023/04/05 10:25:52;;;;;;;52.45;49.08;;;8.70;99.90;;;;;;5050694;28;20121;-72
2023/04/05 10:28:26;;;;;;;46.63;43.53;;;7.80;99.90;;;;;;5054036;28;20131;-72
2023/04/05 10:31:21;;;;;;;49.88;46.55;;;7.90;99.90;;;;;;5057447;28;20131;-73
2023/04/05 10:34:11;;;;;;;50.33;47.00;;;8.10;99.90;;;;;;5062712;28;20045;-73
2023/04/05 10:36:48;;;;;;;52.35;48.95;;;8.30;99.90;;;;;;5054318;28;20067;-72
2023/04/05 10:39:27;;;;;;;50.00;46.75;;;8.30;99.90;;;;;;5062844;28;20052;-73
2023/04/05 10:42:20;;;;;;;55.65;52.17;;;7.80;99.90;;;;;;5056533;28;21037;-73
2023/04/05 10:44:52;;;;;;;48.72;45.50;;;7.70;99.90;;;;;;5057154;28;20044;-72
2023/04/05 10:47:22;;;;;;;52.47;48.92;;;7.90;99.90;;;;;;5062092;28;20048;-72
2023/04/05 10:49:55;;;;;;;53.92;50.55;;;7.80;99.90;;;;;;5062718;28;20044;-73
2023/04/05 10:52:23;;;;;;;57.17;53.38;;;8.10;99.90;;;;;;5056298;28;20115;-73
2023/04/05 10:54:51;;;;;;;51.72;48.40;;;8.60;99.90;;;;;;5057605;28;20044;-73
2023/04/05 10:57:19;;;;;;;56.08;52.67;;;8.90;99.90;;;;;;5056109;28;20128;-73
2023/04/05 10:59:48;;;;;;;55.40;52.00;;;8.80;99.90;;;;;;5062511;28;20048;-72
2023/04/05 11:02:16;;;;;;;53.83;50.63;;;8.20;99.90;;;;;;5052441;28;20106;-73
2023/04/05 11:04:43;;;;;;;55.60;51.95;;;8.20;99.90;;;;;;5056773;28;20033;-72
2023/04/05 11:07:18;;;;;;;56.15;52.67;;;8.40;99.90;;;;;;5057999;28;20793;-75
2023/04/05 11:09:55;;;;;;;55.33;52.05;;;8.20;99.90;;;;;;5059176;28;20048;-72
2023/04/05 11:12:57;;;;;;;49.45;46.55;;;8.50;99.90;;;;;;5058298;28;20037;-74
2023/04/05 11:15:24;;;;;;;50.45;47.40;;;8.40;99.90;;;;;;5034291;28;20159;-73
2023/04/05 11:18:15;;;;;;;57.35;53.72;;;7.80;99.90;;;;;;5044679;28;20127;-73
2023/04/05 11:20:50;;;;;;;56.88;53.03;;;7.60;99.90;;;;;;5059491;28;20068;-73
2023/04/05 11:23:19;;;;;;;55.03;51.35;;;7.90;99.90;;;;;;5055294;28;20052;-73
2023/04/05 11:25:50;;;;;;;53.35;50.05;;;8.10;99.90;;;;;;5059250;28;20055;-73
2023/04/05 11:28:23;;;;;;;53.35;49.95;;;8.30;99.90;;;;;;5055632;28;20044;-73
2023/04/05 11:30:51;;;;;;;55.03;51.53;;;8.40;99.90;;;;;;5055233;28;20132;-73
2023/04/05 11:33:37;;;;;;;52.97;49.45;;;8.70;99.90;;;;;;5059011;28;20426;-72
2023/04/05 11:36:05;;;;;;;52.67;49.25;;;8.90;99.90;;;;;;5057612;28;20048;-72
2023/04/05 11:38:32;;;;;;;51.33;47.83;;;9.20;99.90;;;;;;5066357;28;20048;-73
2023/04/05 11:41:12;;;;;;;49.50;46.22;;;9.60;99.90;;;;;;5066650;28;20046;-73
2023/04/05 11:43:41;;;;;;;51.17;47.83;;;8.80;99.90;;;;;;5064064;28;20107;-72
2023/04/05 11:46:08;;;;;;;53.63;50.05;;;8.40;99.90;;;;;;5060987;28;20052;-73
2023/04/05 11:48:35;;;;;;;50.50;47.20;;;8.40;99.90;;;;;;5067425;28;20044;-73
2023/04/05 11:51:08;;;;;;;53.25;49.65;;;8.50;99.90;;;;;;5058599;28;20123;-72
2023/04/05 11:53:36;;;;;;;54.10;50.58;;;8.10;99.90;;;;;;5063275;28;20101;-72
2023/04/05 11:56:11;;;;;;;49.15;46.05;;;8.00;99.90;;;;;;5066531;28;20123;-72
2023/04/05 11:58:38;;;;;;;54.20;50.67;;;8.10;99.90;;;;;;5061708;28;20040;-72
2023/04/05 12:01:06;;;;;;;51.17;47.95;;;7.80;99.90;;;;;;5069419;28;20048;-73
2023/04/05 12:03:35;;;;;;;50.60;47.33;;;8.10;99.90;;;;;;5069496;28;20505;-73
2023/04/05 12:06:04;;;;;;;50.85;47.55;;;8.40;99.90;;;;;;5063746;28;20108;-72
2023/04/05 12:08:40;;;;;;;51.33;48.13;;;8.40;99.90;;;;;;5065553;28;20045;-72
2023/04/05 12:11:08;;;;;;;49.28;46.13;;;8.50;99.90;;;;;;5068306;28;20098;-73
2023/04/05 12:13:36;;;;;;;52.47;49.17;;;8.70;99.90;;;;;;5059909;28;20068;-73
2023/04/05 12:16:07;;;;;;;49.65;46.45;;;8.80;99.90;;;;;;5056990;28;20068;-75
2023/04/05 12:18:36;;;;;;;51.42;47.95;;;9.30;99.90;;;;;;5070610;28;21227;-74
2023/04/05 12:21:07;;;;;;;50.85;47.55;;;9.80;99.90;;;;;;5069565;28;20049;-72
2023/04/05 12:23:36;;;;;;;52.13;48.63;;;9.50;99.90;;;;;;5063967;28;20048;-73
2023/04/05 12:26:05;;;;;;;52.78;49.58;;;9.50;99.90;;;;;;5059088;28;20037;-73
2023/04/05 12:28:52;;;;;;;53.83;50.50;;;8.70;99.90;;;;;;5072358;28;20042;-73
2023/04/05 12:31:44;;;;;;;53.55;50.15;;;9.10;99.90;;;;;;5067598;28;20040;-72
2023/04/05 12:34:12;;;;;;;50.80;47.45;;;9.10;99.90;;;;;;5070810;28;20040;-73
2023/04/05 12:36:44;;;;;;;49.75;46.65;;;9.40;99.90;;;;;;5065074;28;20064;-73
2023/04/05 12:39:10;;;;;;;50.45;47.33;;;9.60;99.90;;;;;;5077584;28;20055;-73
2023/04/05 12:41:37;;;;;;;52.17;48.88;;;9.60;99.90;;;;;;5058631;28;20097;-72
2023/04/05 12:44:14;;;;;;;52.00;48.78;;;9.60;99.90;;;;;;5065406;28;20052;-73
2023/04/05 12:46:45;;;;;;;53.55;50.15;;;9.50;99.90;;;;;;5061181;28;20682;-72
2023/04/05 12:49:14;;;;;;;52.00;48.55;;;9.40;99.90;;;;;;5066879;28;20055;-72